sensor_id;sensor_type;location;lat;lon;timestamp;P1;durP1;ratioP1;P2;durP2;ratioP2
14294;SDS011;7231;59.370;18.016;2023-06-22T00:01:21;7.28;;;6.63;;
14294;SDS011;7231;59.370;18.016;2023-06-22T00:03:49;7.05;;;6.43;;
14294;SDS011;7231;59.370;18.016;2023-06-22T00:06:18;7.03;;;6.45;;
14294;SDS011;7231;59.370;18.016;2023-06-22T00:08:46;7.00;;;6.38;;
14294;SDS011;7231;59.370;18.016;2023-06-22T00:11:15;7.95;;;7.15;;
14294;SDS011;7231;59.370;18.016;2023-06-22T00:13:43;7.13;;;6.53;;
14294;SDS011;7231;59.370;18.016;2023-06-22T00:16:12;7.38;;;6.68;;
14294;SDS011;7231;59.370;18.016;2023-06-22T00:18:40;9.77;;;7.55;;
14294;SDS011;7231;59.370;18.016;2023-06-22T00:21:13;7.68;;;6.97;;
14294;SDS011;7231;59.370;18.016;2023-06-22T00:23:43;7.10;;;6.50;;
14294;SDS011;7231;59.370;18.016;2023-06-22T00:26:11;8.10;;;7.35;;
14294;SDS011;7231;59.370;18.016;2023-06-22T00:28:40;7.78;;;7.07;;
14294;SDS011;7231;59.370;18.016;2023-06-22T00:31:09;7.80;;;6.90;;
14294;SDS011;7231;59.370;18.016;2023-06-22T00:33:37;8.00;;;7.20;;
14294;SDS011;7231;59.370;18.016;2023-06-22T00:36:05;8.27;;;7.57;;
14294;SDS011;7231;59.370;18.016;2023-06-22T00:38:34;8.25;;;7.55;;
14294;SDS011;7231;59.370;18.016;2023-06-22T00:41:06;7.55;;;6.85;;
14294;SDS011;7231;59.370;18.016;2023-06-22T00:43:35;7.55;;;6.78;;
14294;SDS011;7231;59.370;18.016;2023-06-22T00:46:04;7.90;;;7.20;;
14294;SDS011;7231;59.370;18.016;2023-06-22T00:48:33;8.48;;;7.68;;
14294;SDS011;7231;59.370;18.016;2023-06-22T00:51:03;8.15;;;7.53;;
14294;SDS011;7231;59.370;18.016;2023-06-22T00:53:31;8.32;;;7.53;;
14294;SDS011;7231;59.370;18.016;2023-06-22T00:56:01;8.35;;;7.65;;
14294;SDS011;7231;59.370;18.016;2023-06-22T00:58:30;8.52;;;7.82;;
14294;SDS011;7231;59.370;18.016;2023-06-22T01:00:58;8.20;;;7.47;;
14294;SDS011;7231;59.370;18.016;2023-06-22T01:03:30;7.85;;;7.03;;
14294;SDS011;7231;59.370;18.016;2023-06-22T01:06:01;9.25;;;7.85;;
14294;SDS011;7231;59.370;18.016;2023-06-22T01:08:37;8.88;;;8.07;;
14294;SDS011;7231;59.370;18.016;2023-06-22T01:11:10;8.48;;;7.70;;
14294;SDS011;7231;59.370;18.016;2023-06-22T01:13:45;8.05;;;7.35;;
14294;SDS011;7231;59.370;18.016;2023-06-22T01:16:23;8.77;;;7.95;;
14294;SDS011;7231;59.370;18.016;2023-06-22T01:18:57;9.52;;;7.70;;
14294;SDS011;7231;59.370;18.016;2023-06-22T01:21:32;9.02;;;8.13;;
14294;SDS011;7231;59.370;18.016;2023-06-22T01:24:04;8.55;;;7.85;;
14294;SDS011;7231;59.370;18.016;2023-06-22T01:26:44;9.50;;;8.60;;
14294;SDS011;7231;59.370;18.016;2023-06-22T01:29:23;10.45;;;8.52;;
14294;SDS011;7231;59.370;18.016;2023-06-22T01:31:53;10.05;;;8.85;;
14294;SDS011;7231;59.370;18.016;2023-06-22T01:34:24;9.70;;;8.82;;
14294;SDS011;7231;59.370;18.016;2023-06-22T01:36:52;10.05;;;9.25;;
14294;SDS011;7231;59.370;18.016;2023-06-22T01:39:21;10.15;;;9.20;;
14294;SDS011;7231;59.370;18.016;2023-06-22T01:41:50;9.60;;;8.73;;
14294;SDS011;7231;59.370;18.016;2023-06-22T01:44:19;10.50;;;9.60;;
14294;SDS011;7231;59.370;18.016;2023-06-22T01:46:49;10.27;;;9.38;;
14294;SDS011;7231;59.370;18.016;2023-06-22T01:49:19;10.88;;;9.88;;
14294;SDS011;7231;59.370;18.016;2023-06-22T01:51:48;10.00;;;9.20;;
14294;SDS011;7231;59.370;18.016;2023-06-22T01:54:16;10.93;;;9.95;;
14294;SDS011;7231;59.370;18.016;2023-06-22T01:56:44;11.30;;;10.30;;
14294;SDS011;7231;59.370;18.016;2023-06-22T01:59:14;10.80;;;9.80;;
14294;SDS011;7231;59.370;18.016;2023-06-22T02:01:48;11.82;;;10.82;;
14294;SDS011;7231;59.370;18.016;2023-06-22T02:04:24;11.75;;;10.65;;
14294;SDS011;7231;59.370;18.016;2023-06-22T02:06:55;10.88;;;9.88;;
14294;SDS011;7231;59.370;18.016;2023-06-22T02:09:26;11.40;;;10.32;;
14294;SDS011;7231;59.370;18.016;2023-06-22T02:11:58;11.70;;;10.50;;
14294;SDS011;7231;59.370;18.016;2023-06-22T02:14:29;12.43;;;11.10;;
14294;SDS011;7231;59.370;18.016;2023-06-22T02:16:58;11.55;;;10.45;;
14294;SDS011;7231;59.370;18.016;2023-06-22T02:19:27;11.90;;;10.73;;
14294;SDS011;7231;59.370;18.016;2023-06-22T02:21:59;11.70;;;10.50;;
14294;SDS011;7231;59.370;18.016;2023-06-22T02:24:27;11.45;;;10.35;;
14294;SDS011;7231;59.370;18.016;2023-06-22T02:26:57;11.23;;;10.05;;
14294;SDS011;7231;59.370;18.016;2023-06-22T02:29:25;11.23;;;10.00;;
14294;SDS011;7231;59.370;18.016;2023-06-22T02:31:54;12.13;;;10.95;;
14294;SDS011;7231;59.370;18.016;2023-06-22T02:34:24;11.55;;;10.50;;
14294;SDS011;7231;59.370;18.016;2023-06-22T02:36:52;11.55;;;10.30;;
14294;SDS011;7231;59.370;18.016;2023-06-22T02:39:20;11.18;;;10.07;;
14294;SDS011;7231;59.370;18.016;2023-06-22T02:41:49;10.85;;;9.85;;
14294;SDS011;7231;59.370;18.016;2023-06-22T02:44:17;11.13;;;10.20;;
14294;SDS011;7231;59.370;18.016;2023-06-22T02:46:46;11.30;;;10.30;;
14294;SDS011;7231;59.370;18.016;2023-06-22T02:49:14;10.73;;;9.82;;
14294;SDS011;7231;59.370;18.016;2023-06-22T02:51:45;11.05;;;10.05;;
14294;SDS011;7231;59.370;18.016;2023-06-22T02:54:14;11.48;;;10.15;;
14294;SDS011;7231;59.370;18.016;2023-06-22T02:56:42;11.80;;;10.70;;
14294;SDS011;7231;59.370;18.016;2023-06-22T02:59:11;11.45;;;10.35;;
14294;SDS011;7231;59.370;18.016;2023-06-22T03:01:39;11.25;;;10.25;;
14294;SDS011;7231;59.370;18.016;2023-06-22T03:04:07;10.55;;;9.55;;
14294;SDS011;7231;59.370;18.016;2023-06-22T03:06:35;10.88;;;9.88;;
14294;SDS011;7231;59.370;18.016;2023-06-22T03:09:08;10.95;;;9.95;;
14294;SDS011;7231;59.370;18.016;2023-06-22T03:11:37;10.93;;;9.95;;
14294;SDS011;7231;59.370;18.016;2023-06-22T03:14:05;10.43;;;9.52;;
14294;SDS011;7231;59.370;18.016;2023-06-22T03:16:33;10.65;;;9.63;;
14294;SDS011;7231;59.370;18.016;2023-06-22T03:19:01;10.98;;;10.07;;
14294;SDS011;7231;59.370;18.016;2023-06-22T03:21:29;10.40;;;9.38;;
14294;SDS011;7231;59.370;18.016;2023-06-22T03:23:58;10.70;;;9.65;;
14294;SDS011;7231;59.370;18.016;2023-06-22T03:26:27;10.13;;;9.23;;
14294;SDS011;7231;59.370;18.016;2023-06-22T03:28:56;10.57;;;9.48;;
14294;SDS011;7231;59.370;18.016;2023-06-22T03:31:25;10.48;;;9.57;;
14294;SDS011;7231;59.370;18.016;2023-06-22T03:33:53;10.13;;;9.23;;
14294;SDS011;7231;59.370;18.016;2023-06-22T03:36:21;10.60;;;9.60;;
14294;SDS011;7231;59.370;18.016;2023-06-22T03:38:50;10.32;;;9.43;;
14294;SDS011;7231;59.370;18.016;2023-06-22T03:41:18;10.05;;;9.25;;
14294;SDS011;7231;59.370;18.016;2023-06-22T03:43:48;9.65;;;8.85;;
14294;SDS011;7231;59.370;18.016;2023-06-22T03:46:16;10.02;;;9.13;;
14294;SDS011;7231;59.370;18.016;2023-06-22T03:48:44;10.77;;;9.88;;
14294;SDS011;7231;59.370;18.016;2023-06-22T03:51:12;9.65;;;8.85;;
14294;SDS011;7231;59.370;18.016;2023-06-22T03:53:40;10.35;;;9.45;;
14294;SDS011;7231;59.370;18.016;2023-06-22T03:56:08;10.43;;;9.43;;
14294;SDS011;7231;59.370;18.016;2023-06-22T03:58:36;10.82;;;9.82;;
14294;SDS011;7231;59.370;18.016;2023-06-22T04:01:11;10.10;;;9.20;;
14294;SDS011;7231;59.370;18.016;2023-06-22T04:03:39;10.60;;;9.55;;
14294;SDS011;7231;59.370;18.016;2023-06-22T04:06:08;10.88;;;9.90;;
14294;SDS011;7231;59.370;18.016;2023-06-22T04:08:36;9.65;;;8.85;;
14294;SDS011;7231;59.370;18.016;2023-06-22T04:11:04;9.98;;;8.98;;
14294;SDS011;7231;59.370;18.016;2023-06-22T04:13:32;9.45;;;8.65;;
14294;SDS011;7231;59.370;18.016;2023-06-22T04:16:00;10.13;;;9.23;;
14294;SDS011;7231;59.370;18.016;2023-06-22T04:18:30;10.45;;;9.45;;
14294;SDS011;7231;59.370;18.016;2023-06-22T04:20:58;10.40;;;9.40;;
14294;SDS011;7231;59.370;18.016;2023-06-22T04:23:26;10.25;;;9.25;;
14294;SDS011;7231;59.370;18.016;2023-06-22T04:25:54;10.07;;;9.18;;
14294;SDS011;7231;59.370;18.016;2023-06-22T04:28:24;9.65;;;8.75;;
14294;SDS011;7231;59.370;18.016;2023-06-22T04:30:53;10.35;;;9.48;;
14294;SDS011;7231;59.370;18.016;2023-06-22T04:33:24;10.40;;;9.43;;
14294;SDS011;7231;59.370;18.016;2023-06-22T04:35:54;9.98;;;9.18;;
14294;SDS011;7231;59.370;18.016;2023-06-22T04:38:23;10.57;;;8.98;;
14294;SDS011;7231;59.370;18.016;2023-06-22T04:40:52;9.45;;;8.65;;
14294;SDS011;7231;59.370;18.016;2023-06-22T04:43:20;9.90;;;9.00;;
14294;SDS011;7231;59.370;18.016;2023-06-22T04:45:48;8.88;;;7.80;;
14294;SDS011;7231;59.370;18.016;2023-06-22T04:48:19;8.68;;;7.95;;
14294;SDS011;7231;59.370;18.016;2023-06-22T04:50:47;8.30;;;7.60;;
14294;SDS011;7231;59.370;18.016;2023-06-22T04:53:16;10.75;;;8.30;;
14294;SDS011;7231;59.370;18.016;2023-06-22T04:55:44;9.43;;;8.07;;
14294;SDS011;7231;59.370;18.016;2023-06-22T04:58:15;8.30;;;7.60;;
14294;SDS011;7231;59.370;18.016;2023-06-22T05:00:46;8.10;;;7.40;;
14294;SDS011;7231;59.370;18.016;2023-06-22T05:03:17;8.10;;;7.40;;
14294;SDS011;7231;59.370;18.016;2023-06-22T05:05:46;8.45;;;7.75;;
14294;SDS011;7231;59.370;18.016;2023-06-22T05:08:15;9.05;;;7.45;;
14294;SDS011;7231;59.370;18.016;2023-06-22T05:10:44;7.95;;;7.22;;
14294;SDS011;7231;59.370;18.016;2023-06-22T05:13:30;7.35;;;6.75;;
14294;SDS011;7231;59.370;18.016;2023-06-22T05:15:57;8.40;;;7.60;;
14294;SDS011;7231;59.370;18.016;2023-06-22T05:18:29;7.57;;;6.88;;
14294;SDS011;7231;59.370;18.016;2023-06-22T05:20:58;7.40;;;6.70;;
14294;SDS011;7231;59.370;18.016;2023-06-22T05:23:27;8.40;;;7.35;;
14294;SDS011;7231;59.370;18.016;2023-06-22T05:25:55;7.13;;;6.53;;
14294;SDS011;7231;59.370;18.016;2023-06-22T05:28:25;7.97;;;7.22;;
14294;SDS011;7231;59.370;18.016;2023-06-22T05:30:53;7.18;;;6.40;;
14294;SDS011;7231;59.370;18.016;2023-06-22T05:33:21;7.55;;;6.85;;
14294;SDS011;7231;59.370;18.016;2023-06-22T05:35:50;9.05;;;6.45;;
14294;SDS011;7231;59.370;18.016;2023-06-22T05:38:18;9.80;;;7.20;;
14294;SDS011;7231;59.370;18.016;2023-06-22T05:40:47;7.25;;;6.40;;
14294;SDS011;7231;59.370;18.016;2023-06-22T05:43:15;6.38;;;5.75;;
14294;SDS011;7231;59.370;18.016;2023-06-22T05:45:43;6.25;;;5.70;;
14294;SDS011;7231;59.370;18.016;2023-06-22T05:48:11;8.30;;;5.65;;
14294;SDS011;7231;59.370;18.016;2023-06-22T05:50:39;6.55;;;5.95;;
14294;SDS011;7231;59.370;18.016;2023-06-22T05:53:07;6.38;;;5.78;;
14294;SDS011;7231;59.370;18.016;2023-06-22T05:55:35;6.18;;;5.57;;
14294;SDS011;7231;59.370;18.016;2023-06-22T05:58:05;5.72;;;5.25;;
14294;SDS011;7231;59.370;18.016;2023-06-22T06:00:33;6.55;;;5.95;;
14294;SDS011;7231;59.370;18.016;2023-06-22T06:03:01;8.60;;;5.90;;
14294;SDS011;7231;59.370;18.016;2023-06-22T06:05:30;7.63;;;5.50;;
14294;SDS011;7231;59.370;18.016;2023-06-22T06:07:59;6.10;;;5.50;;
14294;SDS011;7231;59.370;18.016;2023-06-22T06:10:28;7.25;;;5.97;;
14294;SDS011;7231;59.370;18.016;2023-06-22T06:12:57;7.25;;;6.03;;
14294;SDS011;7231;59.370;18.016;2023-06-22T06:15:29;7.18;;;6.47;;
14294;SDS011;7231;59.370;18.016;2023-06-22T06:17:57;6.35;;;5.75;;
14294;SDS011;7231;59.370;18.016;2023-06-22T06:20:26;6.63;;;6.00;;
14294;SDS011;7231;59.370;18.016;2023-06-22T06:22:55;7.22;;;6.53;;
14294;SDS011;7231;59.370;18.016;2023-06-22T06:25:23;6.85;;;6.18;;
14294;SDS011;7231;59.370;18.016;2023-06-22T06:27:52;7.88;;;6.10;;
14294;SDS011;7231;59.370;18.016;2023-06-22T06:30:21;6.00;;;5.40;;
14294;SDS011;7231;59.370;18.016;2023-06-22T06:32:50;6.00;;;5.28;;
14294;SDS011;7231;59.370;18.016;2023-06-22T06:35:19;6.85;;;5.68;;
14294;SDS011;7231;59.370;18.016;2023-06-22T06:37:48;7.35;;;6.05;;
14294;SDS011;7231;59.370;18.016;2023-06-22T06:40:17;8.50;;;5.07;;
14294;SDS011;7231;59.370;18.016;2023-06-22T06:42:46;5.65;;;5.05;;
14294;SDS011;7231;59.370;18.016;2023-06-22T06:45:16;7.32;;;4.90;;
14294;SDS011;7231;59.370;18.016;2023-06-22T06:47:45;10.57;;;5.47;;
14294;SDS011;7231;59.370;18.016;2023-06-22T06:50:15;8.45;;;5.40;;
14294;SDS011;7231;59.370;18.016;2023-06-22T06:52:44;8.80;;;5.00;;
14294;SDS011;7231;59.370;18.016;2023-06-22T06:55:12;8.25;;;4.90;;
14294;SDS011;7231;59.370;18.016;2023-06-22T06:57:41;6.90;;;5.07;;
14294;SDS011;7231;59.370;18.016;2023-06-22T07:00:10;6.55;;;4.80;;
14294;SDS011;7231;59.370;18.016;2023-06-22T07:02:41;8.00;;;4.15;;
14294;SDS011;7231;59.370;18.016;2023-06-22T07:05:11;6.88;;;4.57;;
14294;SDS011;7231;59.370;18.016;2023-06-22T07:07:42;9.98;;;4.88;;
14294;SDS011;7231;59.370;18.016;2023-06-22T07:10:10;4.88;;;4.38;;
14294;SDS011;7231;59.370;18.016;2023-06-22T07:12:38;7.60;;;5.13;;
14294;SDS011;7231;59.370;18.016;2023-06-22T07:15:07;5.45;;;4.45;;
14294;SDS011;7231;59.370;18.016;2023-06-22T07:17:36;7.40;;;5.10;;
14294;SDS011;7231;59.370;18.016;2023-06-22T07:20:06;6.07;;;5.05;;
14294;SDS011;7231;59.370;18.016;2023-06-22T07:22:36;6.25;;;4.40;;
14294;SDS011;7231;59.370;18.016;2023-06-22T07:25:06;9.55;;;4.88;;
14294;SDS011;7231;59.370;18.016;2023-06-22T07:27:36;7.03;;;5.03;;
14294;SDS011;7231;59.370;18.016;2023-06-22T07:30:06;5.45;;;4.95;;
14294;SDS011;7231;59.370;18.016;2023-06-22T07:32:35;6.72;;;4.72;;
14294;SDS011;7231;59.370;18.016;2023-06-22T07:35:04;7.18;;;5.00;;
14294;SDS011;7231;59.370;18.016;2023-06-22T07:37:33;7.20;;;4.70;;
14294;SDS011;7231;59.370;18.016;2023-06-22T07:40:01;6.53;;;4.30;;
14294;SDS011;7231;59.370;18.016;2023-06-22T07:42:34;5.57;;;4.53;;
14294;SDS011;7231;59.370;18.016;2023-06-22T07:45:05;5.20;;;4.40;;
14294;SDS011;7231;59.370;18.016;2023-06-22T07:47:34;5.38;;;4.40;;
14294;SDS011;7231;59.370;18.016;2023-06-22T07:50:03;4.88;;;3.97;;
14294;SDS011;7231;59.370;18.016;2023-06-22T07:52:32;4.72;;;4.05;;
14294;SDS011;7231;59.370;18.016;2023-06-22T07:55:00;6.38;;;4.32;;
14294;SDS011;7231;59.370;18.016;2023-06-22T07:57:28;5.47;;;4.05;;
14294;SDS011;7231;59.370;18.016;2023-06-22T08:00:04;5.30;;;4.32;;
14294;SDS011;7231;59.370;18.016;2023-06-22T08:02:38;5.78;;;4.43;;
14294;SDS011;7231;59.370;18.016;2023-06-22T08:05:08;5.07;;;4.07;;
14294;SDS011;7231;59.370;18.016;2023-06-22T08:07:47;3.88;;;3.10;;
14294;SDS011;7231;59.370;18.016;2023-06-22T08:10:16;8.10;;;4.30;;
14294;SDS011;7231;59.370;18.016;2023-06-22T08:12:44;4.75;;;3.85;;
14294;SDS011;7231;59.370;18.016;2023-06-22T08:15:13;5.28;;;3.90;;
14294;SDS011;7231;59.370;18.016;2023-06-22T08:17:42;7.13;;;4.22;;
14294;SDS011;7231;59.370;18.016;2023-06-22T08:20:11;4.93;;;4.10;;
14294;SDS011;7231;59.370;18.016;2023-06-22T08:22:39;6.70;;;4.10;;
14294;SDS011;7231;59.370;18.016;2023-06-22T08:25:08;6.80;;;3.45;;
14294;SDS011;7231;59.370;18.016;2023-06-22T08:27:39;4.78;;;3.65;;
14294;SDS011;7231;59.370;18.016;2023-06-22T08:30:07;9.57;;;4.00;;
14294;SDS011;7231;59.370;18.016;2023-06-22T08:32:38;5.25;;;3.53;;
14294;SDS011;7231;59.370;18.016;2023-06-22T08:35:07;4.28;;;3.88;;
14294;SDS011;7231;59.370;18.016;2023-06-22T08:37:36;5.65;;;3.80;;
14294;SDS011;7231;59.370;18.016;2023-06-22T08:40:06;4.50;;;3.75;;
14294;SDS011;7231;59.370;18.016;2023-06-22T08:42:37;4.93;;;3.95;;
14294;SDS011;7231;59.370;18.016;2023-06-22T08:45:08;4.82;;;3.72;;
14294;SDS011;7231;59.370;18.016;2023-06-22T08:47:38;4.03;;;3.58;;
14294;SDS011;7231;59.370;18.016;2023-06-22T08:50:08;5.40;;;3.78;;
14294;SDS011;7231;59.370;18.016;2023-06-22T08:52:36;5.50;;;3.63;;
14294;SDS011;7231;59.370;18.016;2023-06-22T08:55:08;4.10;;;3.30;;
14294;SDS011;7231;59.370;18.016;2023-06-22T08:57:37;3.70;;;2.92;;
14294;SDS011;7231;59.370;18.016;2023-06-22T09:00:06;3.60;;;3.15;;
14294;SDS011;7231;59.370;18.016;2023-06-22T09:02:44;3.72;;;3.30;;
14294;SDS011;7231;59.370;18.016;2023-06-22T09:05:13;6.70;;;3.60;;
14294;SDS011;7231;59.370;18.016;2023-06-22T09:07:41;4.10;;;3.35;;
14294;SDS011;7231;59.370;18.016;2023-06-22T09:10:09;6.35;;;3.45;;
14294;SDS011;7231;59.370;18.016;2023-06-22T09:12:39;4.47;;;3.63;;
14294;SDS011;7231;59.370;18.016;2023-06-22T09:15:07;5.68;;;3.53;;
14294;SDS011;7231;59.370;18.016;2023-06-22T09:17:42;5.45;;;3.65;;
14294;SDS011;7231;59.370;18.016;2023-06-22T09:20:11;7.50;;;3.60;;
14294;SDS011;7231;59.370;18.016;2023-06-22T09:22:40;7.50;;;3.95;;
14294;SDS011;7231;59.370;18.016;2023-06-22T09:25:08;4.78;;;3.22;;
14294;SDS011;7231;59.370;18.016;2023-06-22T09:27:36;4.05;;;3.50;;
14294;SDS011;7231;59.370;18.016;2023-06-22T09:30:05;5.93;;;3.50;;
14294;SDS011;7231;59.370;18.016;2023-06-22T09:32:33;4.93;;;2.88;;
14294;SDS011;7231;59.370;18.016;2023-06-22T09:35:03;4.65;;;3.78;;
14294;SDS011;7231;59.370;18.016;2023-06-22T09:37:34;4.93;;;3.35;;
14294;SDS011;7231;59.370;18.016;2023-06-22T09:40:03;4.75;;;2.92;;
14294;SDS011;7231;59.370;18.016;2023-06-22T09:42:35;4.00;;;3.10;;
14294;SDS011;7231;59.370;18.016;2023-06-22T09:45:03;4.13;;;3.03;;
14294;SDS011;7231;59.370;18.016;2023-06-22T09:47:32;6.03;;;3.15;;
14294;SDS011;7231;59.370;18.016;2023-06-22T09:50:00;5.43;;;3.28;;
14294;SDS011;7231;59.370;18.016;2023-06-22T09:52:28;5.45;;;3.35;;
14294;SDS011;7231;59.370;18.016;2023-06-22T09:55:15;5.50;;;3.67;;
14294;SDS011;7231;59.370;18.016;2023-06-22T09:57:43;3.50;;;3.08;;
14294;SDS011;7231;59.370;18.016;2023-06-22T10:00:12;4.30;;;3.08;;
14294;SDS011;7231;59.370;18.016;2023-06-22T10:02:41;3.17;;;2.80;;
14294;SDS011;7231;59.370;18.016;2023-06-22T10:05:09;5.88;;;3.22;;
14294;SDS011;7231;59.370;18.016;2023-06-22T10:07:38;3.83;;;3.05;;
14294;SDS011;7231;59.370;18.016;2023-06-22T10:10:09;4.50;;;2.65;;
14294;SDS011;7231;59.370;18.016;2023-06-22T10:12:41;3.47;;;2.45;;
14294;SDS011;7231;59.370;18.016;2023-06-22T10:15:10;3.17;;;2.88;;
14294;SDS011;7231;59.370;18.016;2023-06-22T10:17:39;3.53;;;2.75;;
14294;SDS011;7231;59.370;18.016;2023-06-22T10:20:08;4.97;;;2.85;;
14294;SDS011;7231;59.370;18.016;2023-06-22T10:22:40;5.80;;;2.95;;
14294;SDS011;7231;59.370;18.016;2023-06-22T10:25:08;4.07;;;2.45;;
14294;SDS011;7231;59.370;18.016;2023-06-22T10:27:37;4.00;;;2.50;;
14294;SDS011;7231;59.370;18.016;2023-06-22T10:30:10;3.22;;;2.70;;
14294;SDS011;7231;59.370;18.016;2023-06-22T10:32:40;3.03;;;2.60;;
14294;SDS011;7231;59.370;18.016;2023-06-22T10:35:09;5.35;;;2.30;;
14294;SDS011;7231;59.370;18.016;2023-06-22T10:37:40;3.53;;;2.20;;
14294;SDS011;7231;59.370;18.016;2023-06-22T10:40:10;6.55;;;2.35;;
14294;SDS011;7231;59.370;18.016;2023-06-22T10:42:39;3.88;;;2.40;;
14294;SDS011;7231;59.370;18.016;2023-06-22T10:45:09;4.63;;;2.38;;
14294;SDS011;7231;59.370;18.016;2023-06-22T10:47:37;3.47;;;2.15;;
14294;SDS011;7231;59.370;18.016;2023-06-22T10:50:05;3.15;;;2.60;;
14294;SDS011;7231;59.370;18.016;2023-06-22T10:52:34;4.03;;;2.70;;
14294;SDS011;7231;59.370;18.016;2023-06-22T10:55:02;5.43;;;2.47;;
14294;SDS011;7231;59.370;18.016;2023-06-22T10:57:30;2.70;;;2.20;;
14294;SDS011;7231;59.370;18.016;2023-06-22T10:59:58;5.13;;;2.30;;
14294;SDS011;7231;59.370;18.016;2023-06-22T11:02:28;3.22;;;2.20;;
14294;SDS011;7231;59.370;18.016;2023-06-22T11:04:56;3.55;;;2.13;;
14294;SDS011;7231;59.370;18.016;2023-06-22T11:07:27;3.33;;;2.08;;
14294;SDS011;7231;59.370;18.016;2023-06-22T11:09:55;2.88;;;1.98;;
14294;SDS011;7231;59.370;18.016;2023-06-22T11:12:23;5.35;;;1.95;;
14294;SDS011;7231;59.370;18.016;2023-06-22T11:14:51;3.13;;;1.92;;
14294;SDS011;7231;59.370;18.016;2023-06-22T11:17:19;4.60;;;2.33;;
14294;SDS011;7231;59.370;18.016;2023-06-22T11:19:48;7.75;;;2.25;;
14294;SDS011;7231;59.370;18.016;2023-06-22T11:22:16;2.45;;;1.80;;
14294;SDS011;7231;59.370;18.016;2023-06-22T11:24:44;2.50;;;2.00;;
14294;SDS011;7231;59.370;18.016;2023-06-22T11:27:12;28.48;;;3.15;;
14294;SDS011;7231;59.370;18.016;2023-06-22T11:29:40;3.85;;;2.20;;
14294;SDS011;7231;59.370;18.016;2023-06-22T11:32:08;2.97;;;2.40;;
14294;SDS011;7231;59.370;18.016;2023-06-22T11:34:39;2.60;;;2.00;;
14294;SDS011;7231;59.370;18.016;2023-06-22T11:37:09;2.38;;;2.15;;
14294;SDS011;7231;59.370;18.016;2023-06-22T11:39:37;4.88;;;2.25;;
14294;SDS011;7231;59.370;18.016;2023-06-22T11:42:14;3.63;;;2.08;;
14294;SDS011;7231;59.370;18.016;2023-06-22T11:44:42;3.63;;;2.25;;
14294;SDS011;7231;59.370;18.016;2023-06-22T11:47:10;5.72;;;2.53;;
14294;SDS011;7231;59.370;18.016;2023-06-22T11:49:39;3.00;;;1.75;;
14294;SDS011;7231;59.370;18.016;2023-06-22T11:52:08;2.90;;;2.13;;
14294;SDS011;7231;59.370;18.016;2023-06-22T11:54:36;5.68;;;2.13;;
14294;SDS011;7231;59.370;18.016;2023-06-22T11:57:04;4.07;;;2.15;;
14294;SDS011;7231;59.370;18.016;2023-06-22T11:59:32;3.17;;;2.20;;
14294;SDS011;7231;59.370;18.016;2023-06-22T12:02:00;2.47;;;1.80;;
14294;SDS011;7231;59.370;18.016;2023-06-22T12:04:30;4.10;;;2.30;;
14294;SDS011;7231;59.370;18.016;2023-06-22T12:06:58;2.20;;;2.00;;
14294;SDS011;7231;59.370;18.016;2023-06-22T12:09:27;4.95;;;2.38;;
14294;SDS011;7231;59.370;18.016;2023-06-22T12:11:55;4.05;;;2.20;;
14294;SDS011;7231;59.370;18.016;2023-06-22T12:14:23;4.18;;;2.00;;
14294;SDS011;7231;59.370;18.016;2023-06-22T12:16:51;3.80;;;2.20;;
14294;SDS011;7231;59.370;18.016;2023-06-22T12:19:19;4.25;;;2.15;;
14294;SDS011;7231;59.370;18.016;2023-06-22T12:21:47;2.90;;;2.55;;
14294;SDS011;7231;59.370;18.016;2023-06-22T12:24:15;5.13;;;2.67;;
14294;SDS011;7231;59.370;18.016;2023-06-22T12:26:44;3.63;;;2.60;;
14294;SDS011;7231;59.370;18.016;2023-06-22T12:29:13;5.57;;;2.38;;
14294;SDS011;7231;59.370;18.016;2023-06-22T12:31:41;4.50;;;2.47;;
14294;SDS011;7231;59.370;18.016;2023-06-22T12:34:09;6.65;;;2.40;;
14294;SDS011;7231;59.370;18.016;2023-06-22T12:36:37;3.28;;;2.55;;
14294;SDS011;7231;59.370;18.016;2023-06-22T12:39:05;5.82;;;2.15;;
14294;SDS011;7231;59.370;18.016;2023-06-22T12:41:33;3.47;;;2.08;;
14294;SDS011;7231;59.370;18.016;2023-06-22T12:44:03;4.63;;;2.35;;
14294;SDS011;7231;59.370;18.016;2023-06-22T12:46:31;3.63;;;2.38;;
14294;SDS011;7231;59.370;18.016;2023-06-22T12:49:04;4.68;;;2.35;;
14294;SDS011;7231;59.370;18.016;2023-06-22T12:51:32;4.43;;;2.22;;
14294;SDS011;7231;59.370;18.016;2023-06-22T12:54:00;5.90;;;2.28;;
14294;SDS011;7231;59.370;18.016;2023-06-22T12:56:28;3.75;;;2.28;;
14294;SDS011;7231;59.370;18.016;2023-06-22T12:58:56;4.90;;;2.20;;
14294;SDS011;7231;59.370;18.016;2023-06-22T13:01:27;3.15;;;1.85;;
14294;SDS011;7231;59.370;18.016;2023-06-22T13:03:57;6.28;;;2.55;;
14294;SDS011;7231;59.370;18.016;2023-06-22T13:06:25;3.53;;;2.20;;
14294;SDS011;7231;59.370;18.016;2023-06-22T13:08:53;6.30;;;2.60;;
14294;SDS011;7231;59.370;18.016;2023-06-22T13:11:24;5.53;;;2.22;;
14294;SDS011;7231;59.370;18.016;2023-06-22T13:13:52;3.45;;;2.45;;
14294;SDS011;7231;59.370;18.016;2023-06-22T13:16:20;4.43;;;2.17;;
14294;SDS011;7231;59.370;18.016;2023-06-22T13:18:49;5.05;;;2.50;;
14294;SDS011;7231;59.370;18.016;2023-06-22T13:21:17;4.35;;;2.40;;
14294;SDS011;7231;59.370;18.016;2023-06-22T13:23:45;3.08;;;2.20;;
14294;SDS011;7231;59.370;18.016;2023-06-22T13:26:13;3.90;;;2.38;;
14294;SDS011;7231;59.370;18.016;2023-06-22T13:28:41;4.43;;;2.53;;
14294;SDS011;7231;59.370;18.016;2023-06-22T13:31:09;5.28;;;2.38;;
14294;SDS011;7231;59.370;18.016;2023-06-22T13:33:37;2.70;;;2.20;;
14294;SDS011;7231;59.370;18.016;2023-06-22T13:36:08;6.53;;;2.35;;
14294;SDS011;7231;59.370;18.016;2023-06-22T13:38:36;5.82;;;2.50;;
14294;SDS011;7231;59.370;18.016;2023-06-22T13:41:05;7.90;;;2.83;;
14294;SDS011;7231;59.370;18.016;2023-06-22T13:43:33;3.10;;;1.90;;
14294;SDS011;7231;59.370;18.016;2023-06-22T13:46:01;3.22;;;2.10;;
14294;SDS011;7231;59.370;18.016;2023-06-22T13:48:29;3.22;;;2.28;;
14294;SDS011;7231;59.370;18.016;2023-06-22T13:51:00;3.30;;;2.28;;
14294;SDS011;7231;59.370;18.016;2023-06-22T13:53:29;4.35;;;2.28;;
14294;SDS011;7231;59.370;18.016;2023-06-22T13:55:57;5.65;;;2.28;;
14294;SDS011;7231;59.370;18.016;2023-06-22T13:58:25;4.03;;;2.20;;
14294;SDS011;7231;59.370;18.016;2023-06-22T14:00:53;4.13;;;2.30;;
14294;SDS011;7231;59.370;18.016;2023-06-22T14:03:22;3.50;;;2.03;;
14294;SDS011;7231;59.370;18.016;2023-06-22T14:05:50;3.20;;;2.25;;
14294;SDS011;7231;59.370;18.016;2023-06-22T14:08:20;3.97;;;2.30;;
14294;SDS011;7231;59.370;18.016;2023-06-22T14:10:54;2.97;;;1.95;;
14294;SDS011;7231;59.370;18.016;2023-06-22T14:13:22;4.03;;;1.98;;
14294;SDS011;7231;59.370;18.016;2023-06-22T14:15:50;3.05;;;2.17;;
14294;SDS011;7231;59.370;18.016;2023-06-22T14:18:20;4.60;;;2.35;;
14294;SDS011;7231;59.370;18.016;2023-06-22T14:20:49;2.83;;;2.17;;
14294;SDS011;7231;59.370;18.016;2023-06-22T14:23:18;2.30;;;2.10;;
14294;SDS011;7231;59.370;18.016;2023-06-22T14:25:46;3.88;;;2.47;;
14294;SDS011;7231;59.370;18.016;2023-06-22T14:28:16;5.07;;;2.45;;
14294;SDS011;7231;59.370;18.016;2023-06-22T14:30:44;6.72;;;2.50;;
14294;SDS011;7231;59.370;18.016;2023-06-22T14:33:12;2.90;;;2.05;;
14294;SDS011;7231;59.370;18.016;2023-06-22T14:35:40;3.65;;;2.53;;
14294;SDS011;7231;59.370;18.016;2023-06-22T14:38:08;2.83;;;2.33;;
14294;SDS011;7231;59.370;18.016;2023-06-22T14:40:36;4.38;;;2.00;;
14294;SDS011;7231;59.370;18.016;2023-06-22T14:43:26;2.53;;;2.10;;
14294;SDS011;7231;59.370;18.016;2023-06-22T14:45:54;2.38;;;1.80;;
14294;SDS011;7231;59.370;18.016;2023-06-22T14:48:22;2.15;;;1.85;;
14294;SDS011;7231;59.370;18.016;2023-06-22T14:50:50;3.00;;;2.10;;
14294;SDS011;7231;59.370;18.016;2023-06-22T14:53:18;3.17;;;2.05;;
14294;SDS011;7231;59.370;18.016;2023-06-22T14:55:46;6.60;;;2.38;;